createdAt,value
2023-04-07T00:03:21.773Z,7.30
2023-04-07T00:07:23.589Z,7.30
2023-04-07T00:11:25.495Z,7.30
2023-04-07T00:15:27.295Z,7.30
2023-04-07T00:19:29.031Z,7.40
2023-04-07T00:23:31.578Z,7.30
2023-04-07T00:27:33.303Z,7.30
2023-04-07T00:31:35.162Z,7.50
2023-04-07T00:35:36.957Z,7.40
2023-04-07T00:39:38.975Z,7.50
2023-04-07T00:43:40.822Z,7.60
2023-04-07T00:47:42.579Z,7.50
2023-04-07T00:51:45.891Z,7.50
2023-04-07T00:55:47.680Z,7.40
2023-04-07T00:59:51.093Z,7.60
2023-04-07T01:04:01.473Z,7.70
2023-04-07T01:08:19.177Z,7.80
2023-04-07T01:12:30.052Z,7.70
2023-04-07T01:16:37.492Z,7.60
2023-04-07T01:20:40.297Z,7.70
2023-04-07T01:25:15.962Z,7.70
2023-04-07T01:29:36.567Z,7.70
2023-04-07T01:33:39.883Z,7.70
2023-04-07T01:37:42.869Z,7.60
2023-04-07T01:41:45.222Z,7.70
2023-04-07T01:45:47.712Z,7.80
2023-04-07T01:49:50.954Z,7.80
2023-04-07T01:53:53.339Z,7.70
2023-04-07T01:57:55.320Z,7.80
2023-04-07T02:01:57.174Z,7.70
2023-04-07T02:06:06.140Z,7.80
2023-04-07T02:10:12.048Z,7.80
2023-04-07T02:14:15.513Z,7.80
2023-04-07T02:18:19.927Z,7.90
2023-04-07T02:22:21.747Z,7.90
2023-04-07T02:26:23.413Z,7.90
2023-04-07T02:30:26.264Z,8.00
2023-04-07T02:34:28.293Z,8.00
2023-04-07T02:38:30.039Z,7.90
2023-04-07T02:42:31.860Z,7.80
2023-04-07T02:46:33.681Z,7.80
2023-04-07T02:50:35.472Z,7.80
2023-04-07T02:54:37.257Z,7.90
2023-04-07T02:58:39.166Z,8.20
2023-04-07T03:02:41.347Z,8.20
2023-04-07T03:06:43.104Z,8.20
2023-04-07T03:10:44.844Z,8.20
2023-04-07T03:14:46.526Z,8.20
2023-04-07T03:18:48.254Z,8.20
2023-04-07T03:22:49.951Z,8.20
2023-04-07T03:26:51.670Z,8.20
2023-04-07T03:30:53.424Z,8.20
2023-04-07T03:34:55.244Z,8.20
2023-04-07T03:38:57.218Z,8.20
2023-04-07T03:42:59.270Z,8.20
2023-04-07T03:47:01.290Z,8.00
2023-04-07T03:51:03.322Z,8.00
2023-04-07T03:55:06.012Z,8.10
2023-04-07T03:59:07.773Z,8.10
2023-04-07T04:03:10.743Z,8.10
2023-04-07T04:07:12.538Z,8.00
2023-04-07T04:11:14.266Z,8.00
2023-04-07T04:15:16.576Z,8.10
2023-04-07T04:19:18.245Z,8.00
2023-04-07T04:23:19.923Z,8.00
2023-04-07T04:27:21.792Z,8.10
2023-04-07T04:31:23.552Z,8.00
2023-04-07T04:35:25.968Z,8.00
2023-04-07T04:39:27.655Z,8.00
2023-04-07T04:43:29.328Z,8.00
2023-04-07T04:47:31.041Z,7.90
2023-04-07T04:51:32.767Z,8.00
2023-04-07T04:55:34.447Z,8.00
2023-04-07T04:59:36.272Z,8.00
2023-04-07T05:03:38.226Z,7.90
2023-04-07T05:07:40.420Z,8.00
2023-04-07T05:11:42.234Z,8.00
2023-04-07T05:15:44.081Z,7.90
2023-04-07T05:19:45.814Z,7.90
2023-04-07T05:23:47.645Z,7.90
2023-04-07T05:27:49.422Z,7.90
2023-04-07T05:31:51.182Z,7.90
2023-04-07T05:35:52.969Z,8.00
2023-04-07T05:39:54.694Z,7.90
2023-04-07T05:43:56.505Z,7.90
2023-04-07T05:47:58.197Z,7.80
2023-04-07T05:51:59.886Z,7.70
2023-04-07T05:56:01.666Z,7.80
2023-04-07T06:00:04.567Z,7.80
2023-04-07T06:04:06.350Z,7.80
2023-04-07T06:08:08.188Z,7.90
2023-04-07T06:12:12.122Z,7.90
2023-04-07T06:16:13.903Z,7.90
2023-04-07T06:20:15.664Z,7.80
2023-04-07T06:24:17.431Z,7.90
2023-04-07T06:28:19.578Z,7.90
2023-04-07T06:32:21.466Z,8.00
2023-04-07T06:36:23.603Z,7.90
2023-04-07T06:40:25.473Z,8.00
2023-04-07T06:44:27.481Z,8.00
2023-04-07T06:48:29.473Z,8.00
2023-04-07T06:52:31.228Z,8.00
2023-04-07T06:56:33.576Z,8.00
2023-04-07T07:00:36.319Z,8.00
2023-04-07T07:04:38.736Z,7.90
2023-04-07T07:08:40.791Z,7.90
2023-04-07T07:12:42.523Z,8.00
2023-04-07T07:16:44.277Z,8.00
2023-04-07T07:20:46.427Z,8.10
2023-04-07T07:24:48.232Z,8.10
2023-04-07T07:28:49.969Z,8.20
2023-04-07T07:32:53.693Z,8.30
2023-04-07T07:36:55.884Z,8.30
2023-04-07T07:40:58.606Z,8.30
2023-04-07T07:45:00.362Z,8.30
2023-04-07T07:49:02.119Z,8.40
2023-04-07T07:53:03.921Z,8.50
2023-04-07T07:57:06.049Z,8.60
2023-04-07T08:01:07.783Z,8.60
2023-04-07T08:05:09.689Z,8.50
2023-04-07T08:09:11.418Z,8.50
2023-04-07T08:13:13.158Z,8.50
2023-04-07T08:17:14.894Z,8.60
2023-04-07T08:21:16.631Z,8.60
2023-04-07T08:25:19.370Z,8.60
2023-04-07T08:29:21.085Z,8.50
2023-04-07T08:33:22.844Z,8.50
2023-04-07T08:37:24.505Z,8.50
2023-04-07T08:41:42.414Z,8.50
2023-04-07T08:45:46.515Z,8.60
2023-04-07T08:49:52.029Z,8.50
2023-04-07T08:53:57.698Z,8.60
2023-04-07T08:58:01.972Z,8.70
2023-04-07T09:02:05.679Z,8.70
2023-04-07T09:06:07.841Z,8.70
2023-04-07T09:10:10.035Z,8.70
2023-04-07T09:14:12.203Z,8.80
2023-04-07T09:18:14.773Z,8.70
2023-04-07T09:22:38.396Z,8.80
2023-04-07T09:26:40.184Z,8.70
2023-04-07T09:30:53.744Z,8.70
2023-04-07T09:35:00.039Z,8.70
2023-04-07T09:39:08.344Z,8.80
2023-04-07T09:43:16.982Z,8.60
2023-04-07T09:47:25.434Z,8.60
2023-04-07T09:51:27.503Z,8.60
2023-04-07T09:55:30.169Z,8.60
2023-04-07T09:59:33.430Z,8.70
2023-04-07T10:03:36.321Z,8.70
2023-04-07T10:07:38.769Z,8.70
2023-04-07T10:11:42.777Z,8.70
2023-04-07T10:15:44.513Z,8.70
2023-04-07T10:19:48.817Z,8.80
2023-04-07T10:23:59.698Z,8.80
2023-04-07T10:28:06.575Z,8.80
2023-04-07T10:32:08.666Z,8.90
2023-04-07T10:36:10.457Z,8.90
2023-04-07T10:40:26.927Z,8.80
2023-04-07T10:44:43.312Z,8.90
2023-04-07T10:49:11.024Z,8.80
2023-04-07T10:53:14.331Z,8.80
2023-04-07T10:57:16.907Z,8.80
2023-04-07T11:01:20.020Z,8.70
2023-04-07T11:05:23.255Z,8.90
2023-04-07T11:09:25.729Z,9.00
2023-04-07T11:13:27.630Z,9.00
2023-04-07T11:17:29.387Z,9.10
2023-04-07T11:21:31.098Z,9.10
2023-04-07T11:25:33.401Z,9.20
2023-04-07T11:29:35.114Z,9.20
2023-04-07T11:33:38.866Z,9.20
2023-04-07T11:37:40.581Z,9.10
2023-04-07T11:41:49.810Z,9.10
2023-04-07T11:46:05.975Z,9.10
2023-04-07T11:50:08.013Z,9.50
2023-04-07T11:54:11.037Z,9.90
2023-04-07T11:58:12.886Z,10.20
2023-04-07T12:02:34.578Z,10.20
2023-04-07T12:06:41.440Z,9.90
2023-04-07T12:10:43.421Z,9.80
2023-04-07T12:14:45.622Z,10.10
2023-04-07T12:18:47.622Z,10.20
2023-04-07T12:22:49.376Z,10.30
2023-04-07T12:26:51.249Z,10.20
2023-04-07T12:30:53.519Z,10.10
2023-04-07T12:34:55.244Z,10.10
2023-04-07T12:38:57.193Z,9.80
2023-04-07T12:42:58.884Z,9.80
2023-04-07T12:47:00.634Z,9.90
2023-04-07T12:51:02.376Z,10.00
2023-04-07T12:55:04.829Z,10.10
2023-04-07T12:59:06.541Z,10.20
2023-04-07T13:03:08.349Z,10.10
2023-04-07T13:07:10.203Z,9.90
2023-04-07T13:11:11.950Z,9.90
2023-04-07T13:15:13.672Z,9.80
2023-04-07T13:19:15.383Z,9.90
2023-04-07T13:23:18.692Z,9.80
2023-04-07T13:27:21.156Z,9.90
2023-04-07T13:31:23.663Z,10.00
2023-04-07T13:35:25.856Z,10.10
2023-04-07T13:39:27.641Z,10.00
2023-04-07T13:43:29.421Z,10.20
2023-04-07T13:47:34.199Z,10.40
2023-04-07T13:51:36.041Z,10.50
2023-04-07T13:55:37.881Z,10.60
2023-04-07T13:59:39.645Z,10.50
2023-04-07T14:03:41.888Z,10.50
2023-04-07T14:07:43.641Z,10.70
2023-04-07T14:11:45.430Z,10.70
2023-04-07T14:15:48.647Z,10.70
2023-04-07T14:19:50.605Z,10.70
2023-04-07T14:23:52.590Z,10.80
2023-04-07T14:27:54.439Z,10.30
2023-04-07T14:31:56.199Z,10.30
2023-04-07T14:35:58.233Z,10.30
2023-04-07T14:40:03.032Z,10.20
2023-04-07T14:44:09.464Z,10.10
2023-04-07T14:48:11.757Z,10.00
2023-04-07T14:52:14.062Z,9.90
2023-04-07T14:56:15.866Z,9.90
2023-04-07T15:00:17.871Z,9.90
2023-04-07T15:04:19.660Z,9.80
2023-04-07T15:08:21.447Z,10.00
2023-04-07T15:12:23.247Z,10.00
2023-04-07T15:16:25.055Z,10.10
2023-04-07T15:20:27.006Z,10.30
2023-04-07T15:24:28.795Z,10.30
2023-04-07T15:28:30.722Z,10.40
2023-04-07T15:32:32.482Z,10.40
2023-04-07T15:36:34.183Z,10.30
2023-04-07T15:40:37.167Z,10.30
2023-04-07T15:44:39.809Z,10.40
2023-04-07T15:48:41.805Z,10.20
2023-04-07T15:52:43.477Z,10.20
2023-04-07T15:56:45.238Z,10.10
2023-04-07T16:00:47.135Z,9.90
2023-04-07T16:04:49.199Z,9.90
2023-04-07T16:08:50.927Z,9.70
2023-04-07T16:12:52.737Z,9.80
2023-04-07T16:16:58.513Z,9.70
2023-04-07T16:21:02.426Z,9.70
2023-04-07T16:25:06.213Z,9.80
2023-04-07T16:29:07.984Z,9.80
2023-04-07T16:33:09.916Z,9.70
2023-04-07T16:37:12.687Z,9.70
2023-04-07T16:41:14.476Z,9.70
2023-04-07T16:45:16.236Z,9.80
2023-04-07T16:49:18.055Z,9.90
2023-04-07T16:53:21.188Z,9.90
2023-04-07T16:57:23.368Z,9.80
2023-04-07T17:01:28.337Z,9.70
2023-04-07T17:05:30.287Z,9.50
2023-04-07T17:09:32.616Z,9.40
2023-04-07T17:13:34.782Z,9.40
2023-04-07T17:17:36.944Z,9.30
2023-04-07T17:21:38.766Z,9.30
2023-04-07T17:25:40.943Z,9.40
2023-04-07T17:29:42.646Z,9.40
2023-04-07T17:33:44.369Z,9.30
2023-04-07T17:37:46.450Z,9.30
2023-04-07T17:41:48.168Z,9.30
2023-04-07T17:45:49.916Z,9.20
2023-04-07T17:49:51.668Z,9.10
2023-04-07T17:53:54.271Z,9.10
2023-04-07T17:58:00.645Z,9.00
2023-04-07T18:02:08.718Z,9.00
2023-04-07T18:06:14.694Z,8.90
2023-04-07T18:10:18.289Z,8.90
2023-04-07T18:14:20.033Z,8.90
2023-04-07T18:18:21.839Z,8.80
2023-04-07T18:22:23.694Z,8.80
2023-04-07T18:26:25.497Z,8.80
2023-04-07T18:30:27.192Z,8.70
2023-04-07T18:34:28.883Z,8.70
2023-04-07T18:38:30.808Z,8.70
2023-04-07T18:42:32.522Z,8.60
2023-04-07T18:46:34.273Z,8.60
2023-04-07T18:50:36.035Z,8.60
2023-04-07T18:54:37.830Z,8.60
2023-04-07T18:58:44.657Z,8.70
2023-04-07T19:02:47.406Z,8.70
2023-04-07T19:06:52.777Z,8.80
2023-04-07T19:10:54.537Z,8.80
2023-04-07T19:14:56.566Z,8.70
2023-04-07T19:18:58.264Z,8.80
2023-04-07T19:23:00.307Z,8.80
2023-04-07T19:27:02.067Z,8.70
2023-04-07T19:31:06.520Z,8.60
2023-04-07T19:35:09.902Z,8.60
2023-04-07T19:39:11.779Z,8.60
2023-04-07T19:43:16.307Z,8.60
2023-04-07T19:47:18.001Z,8.50
2023-04-07T19:51:19.844Z,8.60
2023-04-07T19:55:21.704Z,8.70
2023-04-07T19:59:23.473Z,8.60
2023-04-07T20:03:25.303Z,8.50
2023-04-07T20:07:27.227Z,8.50
2023-04-07T20:11:28.984Z,8.50
2023-04-07T20:15:30.966Z,8.60
2023-04-07T20:19:32.730Z,8.50
2023-04-07T20:23:34.592Z,8.60
2023-04-07T20:27:36.786Z,8.60
2023-04-07T20:31:38.653Z,8.60
2023-04-07T20:35:40.486Z,8.50
2023-04-07T20:39:42.278Z,8.40
2023-04-07T20:43:44.089Z,8.50
2023-04-07T20:47:46.003Z,8.50
2023-04-07T20:51:47.988Z,8.50
2023-04-07T20:55:49.778Z,8.50
2023-04-07T20:59:51.690Z,8.50
2023-04-07T21:03:54.126Z,8.50
2023-04-07T21:07:55.936Z,8.50
2023-04-07T21:11:57.684Z,8.50
2023-04-07T21:15:59.447Z,8.40
2023-04-07T21:20:01.250Z,8.50
2023-04-07T21:24:02.985Z,8.40
2023-04-07T21:28:04.864Z,8.40
2023-04-07T21:32:07.307Z,8.30
2023-04-07T21:36:09.089Z,8.30
2023-04-07T21:40:11.206Z,8.30
2023-04-07T21:44:13.156Z,8.30
2023-04-07T21:48:16.118Z,8.40
2023-04-07T21:52:17.911Z,8.50
2023-04-07T21:56:19.652Z,8.40
2023-04-07T22:00:21.940Z,8.40
2023-04-07T22:04:23.918Z,8.40
2023-04-07T22:08:27.085Z,8.40
2023-04-07T22:12:28.909Z,8.40
2023-04-07T22:16:30.777Z,8.40
2023-04-07T22:20:32.582Z,8.40
2023-04-07T22:24:34.909Z,8.30
2023-04-07T22:28:37.105Z,8.20
2023-04-07T22:32:38.928Z,8.20
2023-04-07T22:36:41.011Z,8.30
2023-04-07T22:40:43.201Z,8.30
2023-04-07T22:44:44.946Z,8.30
2023-04-07T22:48:47.003Z,8.20
2023-04-07T22:52:48.976Z,8.30
2023-04-07T22:56:51.074Z,8.20
2023-04-07T23:00:52.919Z,8.20
2023-04-07T23:04:55.230Z,8.20
2023-04-07T23:08:57.055Z,8.20
2023-04-07T23:12:58.892Z,8.20
2023-04-07T23:17:01.118Z,8.20
2023-04-07T23:21:03.384Z,8.20
2023-04-07T23:25:05.788Z,8.20
2023-04-07T23:29:07.546Z,8.30
2023-04-07T23:33:09.262Z,8.30
2023-04-07T23:37:10.973Z,8.30
2023-04-07T23:41:13.011Z,8.30
2023-04-07T23:45:14.890Z,8.20
2023-04-07T23:49:16.872Z,8.20
2023-04-07T23:53:18.951Z,8.10
2023-04-07T23:57:20.881Z,8.10
